createdAt,value
2017-09-30T00:01:40.600Z,27.30
2017-09-30T00:04:09.657Z,23.80
2017-09-30T00:06:38.720Z,23.77
2017-09-30T00:09:07.923Z,22.50
2017-09-30T00:11:36.979Z,21.43
2017-09-30T00:14:06.023Z,21.60
2017-09-30T00:16:35.078Z,20.40
2017-09-30T00:19:04.138Z,27.20
2017-09-30T00:21:34.192Z,24.47
2017-09-30T00:24:03.226Z,21.07
2017-09-30T00:26:32.295Z,19.97
2017-09-30T00:29:01.354Z,21.70
2017-09-30T00:31:31.393Z,24.13
2017-09-30T00:34:01.413Z,19.77
2017-09-30T00:36:30.454Z,24.93
2017-09-30T00:38:59.573Z,27.40
2017-09-30T00:41:28.629Z,28.83
2017-09-30T00:43:57.662Z,30.30
2017-09-30T00:46:26.721Z,33.33
2017-09-30T00:48:55.770Z,29.63
2017-09-30T00:51:24.863Z,32.47
2017-09-30T00:53:53.902Z,31.60
2017-09-30T00:56:23.003Z,32.07
2017-09-30T00:58:52.070Z,32.27
2017-09-30T01:01:21.122Z,30.03
2017-09-30T01:03:50.275Z,32.70
2017-09-30T01:06:19.407Z,32.07
2017-09-30T01:08:48.565Z,36.23
2017-09-30T01:11:19.868Z,22.67
2017-09-30T01:13:49.007Z,21.20
2017-09-30T01:16:18.103Z,21.53
2017-09-30T01:18:48.239Z,24.43
2017-09-30T01:21:17.710Z,26.37
2017-09-30T01:23:47.158Z,24.40
2017-09-30T01:26:16.610Z,25.53
2017-09-30T01:28:45.837Z,23.90
2017-09-30T01:31:15.322Z,28.07
2017-09-30T01:33:44.408Z,24.90
2017-09-30T01:36:15.514Z,24.37
2017-09-30T01:38:44.613Z,25.73
2017-09-30T01:41:13.774Z,26.23
2017-09-30T01:43:42.805Z,24.90
2017-09-30T01:46:12.003Z,25.10
2017-09-30T01:48:41.068Z,27.47
2017-09-30T01:51:10.098Z,29.13
2017-09-30T01:53:39.149Z,30.73
2017-09-30T01:56:08.202Z,31.57
2017-09-30T01:58:37.401Z,34.30
2017-09-30T02:01:06.452Z,28.03
2017-09-30T02:03:35.499Z,34.10
2017-09-30T02:06:04.558Z,38.37
2017-09-30T02:08:33.616Z,36.37
2017-09-30T02:11:02.646Z,31.03
2017-09-30T02:13:31.699Z,38.37
2017-09-30T02:16:00.767Z,39.70
2017-09-30T02:18:30.037Z,37.63
2017-09-30T02:20:59.074Z,36.70
2017-09-30T02:23:28.123Z,27.63
2017-09-30T02:25:57.207Z,27.93
2017-09-30T02:28:26.266Z,26.03
2017-09-30T02:30:56.262Z,23.97
2017-09-30T02:33:25.306Z,27.80
2017-09-30T02:35:54.359Z,24.67
2017-09-30T02:38:23.446Z,26.27
2017-09-30T02:40:52.547Z,24.87
2017-09-30T02:43:21.561Z,27.77
2017-09-30T02:45:50.628Z,23.33
2017-09-30T02:48:19.678Z,30.03
2017-09-30T02:50:48.731Z,28.27
2017-09-30T02:53:17.792Z,28.73
2017-09-30T02:55:50.170Z,29.53
2017-09-30T02:58:19.518Z,26.37
2017-09-30T03:00:48.565Z,29.40
2017-09-30T03:03:17.615Z,34.23
2017-09-30T03:05:46.682Z,27.67
2017-09-30T03:08:17.674Z,29.50
2017-09-30T03:10:46.714Z,36.80
2017-09-30T03:13:15.754Z,27.70
2017-09-30T03:15:44.812Z,31.30
2017-09-30T03:18:13.871Z,31.40
2017-09-30T03:20:43.887Z,32.70
2017-09-30T03:23:12.937Z,28.97
2017-09-30T03:25:41.995Z,28.47
2017-09-30T03:28:11.071Z,28.57
2017-09-30T03:30:40.134Z,32.77
2017-09-30T03:33:09.233Z,32.63
2017-09-30T03:35:38.286Z,29.00
2017-09-30T03:38:07.331Z,23.90
2017-09-30T03:40:36.409Z,27.33
2017-09-30T03:43:05.446Z,32.40
2017-09-30T03:45:34.489Z,29.37
2017-09-30T03:48:03.532Z,26.70
2017-09-30T03:50:32.604Z,25.67
2017-09-30T03:53:01.663Z,25.83
2017-09-30T03:55:30.744Z,22.03
2017-09-30T03:57:59.793Z,24.43
2017-09-30T04:00:28.883Z,21.33
2017-09-30T04:02:57.923Z,21.07
2017-09-30T04:05:26.977Z,20.87
2017-09-30T04:07:56.045Z,21.60
2017-09-30T04:10:25.084Z,31.13
2017-09-30T04:12:54.167Z,24.40
2017-09-30T04:15:23.211Z,24.27
2017-09-30T04:17:52.263Z,25.10
2017-09-30T04:20:21.358Z,23.17
2017-09-30T04:22:50.405Z,25.80
2017-09-30T04:25:19.458Z,23.70
2017-09-30T04:27:48.518Z,23.03
2017-09-30T04:30:17.588Z,25.60
2017-09-30T04:32:46.637Z,22.97
2017-09-30T04:35:15.690Z,27.47
2017-09-30T04:37:44.745Z,24.60
2017-09-30T04:40:13.805Z,29.30
2017-09-30T04:42:42.875Z,34.27
2017-09-30T04:45:11.947Z,29.10
2017-09-30T04:47:41.003Z,31.33
2017-09-30T04:50:10.070Z,33.37
2017-09-30T04:52:39.119Z,40.63
2017-09-30T04:55:08.282Z,34.77
2017-09-30T04:57:37.330Z,29.10
2017-09-30T05:00:06.401Z,33.67
2017-09-30T05:02:36.472Z,29.97
2017-09-30T05:05:06.491Z,39.07
2017-09-30T05:07:35.687Z,28.27
2017-09-30T05:10:04.751Z,27.90
2017-09-30T05:12:33.803Z,33.60
2017-09-30T05:15:02.895Z,41.33
2017-09-30T05:17:32.003Z,36.83
2017-09-30T05:20:03.029Z,41.60
2017-09-30T05:22:33.242Z,37.07
2017-09-30T05:25:02.287Z,31.47
2017-09-30T05:27:32.042Z,33.80
2017-09-30T05:30:01.083Z,32.00
2017-09-30T05:32:30.138Z,27.60
2017-09-30T05:35:00.230Z,28.10
2017-09-30T05:37:29.330Z,33.30
2017-09-30T05:39:58.394Z,26.43
2017-09-30T05:42:27.439Z,32.10
2017-09-30T05:44:56.487Z,29.03
2017-09-30T05:47:25.539Z,28.23
2017-09-30T05:49:54.587Z,30.07
2017-09-30T05:52:23.679Z,25.30
2017-09-30T05:54:52.727Z,21.33
2017-09-30T05:57:21.802Z,26.70
2017-09-30T05:59:50.850Z,17.43
2017-09-30T06:02:19.901Z,17.63
2017-09-30T06:04:49.029Z,16.70
2017-09-30T06:07:18.087Z,18.20
2017-09-30T06:09:47.180Z,18.43
2017-09-30T06:12:16.242Z,16.80
2017-09-30T06:14:45.324Z,16.50
2017-09-30T06:17:14.470Z,17.27
2017-09-30T06:19:43.526Z,18.50
2017-09-30T06:22:12.608Z,17.60
2017-09-30T06:24:41.681Z,17.77
2017-09-30T06:27:10.730Z,16.73
2017-09-30T06:29:39.779Z,15.70
2017-09-30T06:32:08.862Z,17.10
2017-09-30T06:34:38.020Z,14.93
2017-09-30T06:37:07.172Z,17.47
2017-09-30T06:39:36.434Z,15.90
2017-09-30T06:42:05.475Z,16.73
2017-09-30T06:44:34.655Z,15.30
2017-09-30T06:47:03.715Z,16.40
2017-09-30T06:49:32.943Z,15.30
2017-09-30T06:52:01.979Z,15.90
2017-09-30T06:54:31.027Z,16.53
2017-09-30T06:57:00.070Z,15.07
2017-09-30T06:59:29.470Z,15.00
2017-09-30T07:01:58.538Z,14.47
2017-09-30T07:04:27.602Z,14.97
2017-09-30T07:06:56.672Z,13.50
2017-09-30T07:09:25.723Z,13.60
2017-09-30T07:11:54.784Z,12.83
2017-09-30T07:14:23.895Z,12.17
2017-09-30T07:16:52.946Z,12.93
2017-09-30T07:19:22.041Z,12.50
2017-09-30T07:21:51.100Z,13.07
2017-09-30T07:24:20.151Z,10.87
2017-09-30T07:26:49.206Z,11.30
2017-09-30T07:29:18.263Z,11.07
2017-09-30T07:31:47.320Z,11.13
2017-09-30T07:34:16.380Z,12.40
2017-09-30T07:36:45.426Z,10.77
2017-09-30T07:39:14.493Z,11.00
2017-09-30T07:41:43.542Z,11.87
2017-09-30T07:44:12.588Z,9.83
2017-09-30T07:46:41.650Z,9.20
2017-09-30T07:49:10.806Z,12.73
2017-09-30T07:51:39.893Z,11.73
2017-09-30T07:54:09.108Z,11.37
2017-09-30T07:56:38.297Z,11.57
2017-09-30T07:59:07.324Z,8.63
2017-09-30T08:01:36.455Z,10.00
2017-09-30T08:04:05.499Z,8.20
2017-09-30T08:06:34.553Z,8.47
2017-09-30T08:09:03.606Z,8.33
2017-09-30T08:11:32.644Z,7.90
2017-09-30T08:14:01.847Z,7.00
2017-09-30T08:16:30.886Z,7.23
2017-09-30T08:18:59.934Z,6.87
2017-09-30T08:21:28.987Z,7.70
2017-09-30T08:23:58.043Z,8.50
2017-09-30T08:26:29.100Z,7.53
2017-09-30T08:28:59.411Z,9.47
2017-09-30T08:31:28.493Z,17.63
2017-09-30T08:33:57.528Z,7.63
2017-09-30T08:36:26.566Z,8.77
2017-09-30T08:38:55.661Z,8.30
2017-09-30T08:41:24.699Z,7.47
2017-09-30T08:43:53.784Z,7.50
2017-09-30T08:46:22.839Z,8.53
2017-09-30T08:48:51.907Z,7.13
2017-09-30T08:51:20.980Z,6.60
2017-09-30T08:53:50.031Z,7.10
2017-09-30T08:56:19.070Z,8.23
2017-09-30T08:58:48.132Z,7.10
2017-09-30T09:01:17.225Z,7.20
2017-09-30T09:03:46.253Z,8.07
2017-09-30T09:06:15.321Z,7.00
2017-09-30T09:08:44.374Z,7.10
2017-09-30T09:11:13.428Z,6.70
2017-09-30T09:13:42.526Z,6.70
2017-09-30T09:16:11.570Z,6.33
2017-09-30T09:18:40.624Z,7.40
2017-09-30T09:21:09.701Z,6.83
2017-09-30T09:23:43.975Z,6.57
2017-09-30T09:26:18.238Z,7.90
2017-09-30T09:28:53.576Z,6.43
2017-09-30T09:31:28.313Z,6.60
2017-09-30T09:34:03.758Z,6.50
2017-09-30T09:36:39.424Z,6.03
2017-09-30T09:39:14.974Z,6.67
2017-09-30T09:41:49.967Z,6.93
2017-09-30T09:44:24.194Z,5.60
2017-09-30T09:46:59.733Z,6.70
2017-09-30T09:49:35.999Z,6.40
2017-09-30T09:52:10.796Z,5.20
2017-09-30T09:54:45.661Z,7.07
2017-09-30T09:57:21.300Z,5.60
2017-09-30T09:59:57.963Z,5.97
2017-09-30T10:02:32.288Z,5.90
2017-09-30T10:05:09.938Z,5.17
2017-09-30T10:07:45.122Z,7.30
2017-09-30T10:10:21.618Z,4.87
2017-09-30T10:12:55.096Z,5.77
2017-09-30T10:15:31.151Z,5.03
2017-09-30T10:18:05.978Z,4.70
2017-09-30T10:20:41.810Z,5.60
2017-09-30T10:23:15.259Z,5.73
2017-09-30T10:25:52.350Z,6.03
2017-09-30T10:28:27.140Z,6.60
2017-09-30T10:31:02.356Z,4.30
2017-09-30T10:33:37.252Z,5.10
2017-09-30T10:36:12.532Z,5.30
2017-09-30T10:38:46.728Z,5.00
2017-09-30T10:41:21.660Z,6.60
2017-09-30T10:43:56.697Z,9.53
2017-09-30T10:46:31.709Z,5.50
2017-09-30T10:49:06.534Z,6.30
2017-09-30T10:51:42.203Z,5.83
2017-09-30T10:54:15.878Z,4.80
2017-09-30T10:56:49.967Z,5.13
2017-09-30T10:59:25.460Z,5.10
2017-09-30T11:01:55.089Z,5.30
2017-09-30T11:04:24.429Z,5.90
2017-09-30T11:06:53.487Z,5.73
2017-09-30T11:09:22.629Z,5.30
2017-09-30T11:11:52.411Z,5.40
2017-09-30T11:14:21.645Z,6.80
2017-09-30T11:16:50.712Z,5.50
2017-09-30T11:19:19.746Z,5.53
2017-09-30T11:21:49.112Z,5.63
2017-09-30T11:24:18.210Z,5.30
2017-09-30T11:26:47.231Z,5.60
2017-09-30T11:29:16.288Z,5.13
2017-09-30T11:31:45.346Z,4.97
2017-09-30T11:34:14.382Z,5.03
2017-09-30T11:36:43.430Z,5.00
2017-09-30T11:39:12.468Z,6.30
2017-09-30T11:41:41.538Z,6.40
2017-09-30T11:44:10.588Z,5.20
2017-09-30T11:46:39.667Z,5.87
2017-09-30T11:49:08.769Z,5.80
2017-09-30T11:51:40.407Z,5.97
2017-09-30T11:54:09.455Z,7.07
2017-09-30T11:56:38.505Z,5.40
2017-09-30T11:59:07.567Z,5.47
2017-09-30T12:01:36.622Z,6.13
2017-09-30T12:04:05.707Z,9.10
2017-09-30T12:06:34.876Z,9.57
2017-09-30T12:09:03.915Z,5.73
2017-09-30T12:11:40.997Z,5.70
2017-09-30T12:14:12.181Z,5.70
2017-09-30T12:16:41.275Z,6.20
2017-09-30T12:19:10.342Z,5.63
2017-09-30T12:21:39.390Z,5.97
2017-09-30T12:24:08.496Z,5.93
2017-09-30T12:26:37.522Z,5.17
2017-09-30T12:29:06.723Z,5.30
2017-09-30T12:31:35.799Z,5.63
2017-09-30T12:34:04.856Z,6.00
2017-09-30T12:36:34.122Z,5.67
2017-09-30T12:39:03.151Z,6.03
2017-09-30T12:41:32.224Z,6.47
2017-09-30T12:44:01.274Z,5.97
2017-09-30T12:46:30.781Z,5.10
2017-09-30T12:48:59.846Z,5.80
2017-09-30T12:51:28.970Z,5.83
2017-09-30T12:53:58.034Z,6.60
2017-09-30T12:56:27.082Z,5.77
2017-09-30T12:58:56.226Z,6.40
2017-09-30T13:01:25.586Z,5.50
2017-09-30T13:03:54.682Z,6.00
2017-09-30T13:06:23.769Z,7.43
2017-09-30T13:08:52.804Z,5.80
2017-09-30T13:11:21.984Z,6.20
2017-09-30T13:13:51.024Z,6.10
2017-09-30T13:16:20.102Z,7.17
2017-09-30T13:18:49.152Z,5.90
2017-09-30T13:21:18.245Z,7.13
2017-09-30T13:23:47.398Z,7.70
2017-09-30T13:26:16.439Z,6.90
2017-09-30T13:28:45.603Z,6.67
2017-09-30T13:31:14.639Z,8.10
2017-09-30T13:33:43.793Z,6.30
2017-09-30T13:36:12.871Z,6.67
2017-09-30T13:38:41.950Z,6.07
2017-09-30T13:41:11.109Z,6.47
2017-09-30T13:43:40.634Z,5.80
2017-09-30T13:46:09.687Z,6.70
2017-09-30T13:48:38.996Z,6.70
2017-09-30T13:51:08.063Z,4.73
2017-09-30T13:53:38.335Z,5.40
2017-09-30T13:56:08.154Z,6.00
2017-09-30T13:58:43.681Z,5.50
2017-09-30T14:01:17.591Z,6.37
2017-09-30T14:03:46.723Z,5.63
2017-09-30T14:06:15.764Z,5.73
2017-09-30T14:08:44.906Z,6.70
2017-09-30T14:11:13.951Z,5.60
2017-09-30T14:13:42.975Z,5.67
2017-09-30T14:16:12.038Z,6.90
2017-09-30T14:18:41.179Z,5.40
2017-09-30T14:21:10.222Z,6.67
2017-09-30T14:23:41.220Z,7.37
2017-09-30T14:26:12.822Z,6.07
2017-09-30T14:28:41.946Z,9.07
2017-09-30T14:31:11.007Z,8.37
2017-09-30T14:33:40.081Z,8.97
2017-09-30T14:36:09.324Z,11.03
2017-09-30T14:38:38.365Z,10.50
2017-09-30T14:41:07.422Z,10.87
2017-09-30T14:43:36.501Z,10.90
2017-09-30T14:46:05.593Z,14.00
2017-09-30T14:48:34.671Z,14.10
2017-09-30T14:51:03.750Z,13.57
2017-09-30T14:53:32.803Z,14.40
2017-09-30T14:56:02.139Z,16.70
2017-09-30T14:58:31.343Z,14.60
2017-09-30T15:01:00.411Z,15.63
2017-09-30T15:03:29.480Z,16.47
2017-09-30T15:05:58.554Z,16.23
2017-09-30T15:08:28.918Z,20.30
2017-09-30T15:10:58.067Z,37.47
2017-09-30T15:13:27.133Z,23.00
2017-09-30T15:15:56.172Z,24.17
2017-09-30T15:18:25.263Z,23.00
2017-09-30T15:20:54.998Z,16.70
2017-09-30T15:23:24.138Z,16.97
2017-09-30T15:25:53.270Z,17.70
2017-09-30T15:28:22.370Z,16.20
2017-09-30T15:30:51.551Z,15.83
2017-09-30T15:33:20.657Z,16.00
2017-09-30T15:35:49.758Z,16.57
2017-09-30T15:38:18.799Z,16.87
2017-09-30T15:40:47.843Z,17.73
2017-09-30T15:43:17.808Z,17.50
2017-09-30T15:45:46.854Z,37.27
2017-09-30T15:48:16.691Z,21.63
2017-09-30T15:50:45.754Z,49.40
2017-09-30T15:53:14.898Z,64.97
2017-09-30T15:55:43.995Z,24.77
2017-09-30T15:58:13.046Z,21.80
2017-09-30T16:00:42.099Z,21.27
2017-09-30T16:03:11.180Z,19.97
2017-09-30T16:05:40.294Z,17.87
2017-09-30T16:08:09.396Z,17.37
2017-09-30T16:10:38.501Z,22.53
2017-09-30T16:13:07.600Z,18.20
2017-09-30T16:15:36.688Z,16.93
2017-09-30T16:18:05.738Z,18.20
2017-09-30T16:20:34.799Z,19.27
2017-09-30T16:23:05.932Z,18.57
2017-09-30T16:25:34.971Z,17.30
2017-09-30T16:28:04.068Z,16.33
2017-09-30T16:30:33.118Z,16.73
2017-09-30T16:33:02.173Z,17.27
2017-09-30T16:35:31.279Z,15.97
2017-09-30T16:38:01.225Z,16.10
2017-09-30T16:40:30.282Z,16.23
2017-09-30T16:42:59.331Z,15.40
2017-09-30T16:45:28.405Z,13.83
2017-09-30T16:47:57.494Z,18.93
2017-09-30T16:50:26.549Z,14.63
2017-09-30T16:52:55.612Z,14.70
2017-09-30T16:55:24.654Z,15.27
2017-09-30T16:57:54.666Z,15.20
2017-09-30T17:00:23.755Z,16.53
2017-09-30T17:02:52.799Z,16.03
2017-09-30T17:05:21.890Z,16.33
2017-09-30T17:07:50.948Z,15.80
2017-09-30T17:10:20.001Z,16.10
2017-09-30T17:12:49.992Z,16.20
2017-09-30T17:15:19.046Z,16.63
2017-09-30T17:17:48.471Z,17.07
2017-09-30T17:20:17.487Z,18.80
2017-09-30T17:22:46.529Z,14.47
2017-09-30T17:25:15.616Z,19.47
2017-09-30T17:27:44.711Z,15.50
2017-09-30T17:30:13.763Z,15.50
2017-09-30T17:32:42.827Z,15.73
2017-09-30T17:35:11.890Z,15.97
2017-09-30T17:37:40.964Z,15.43
2017-09-30T17:40:10.009Z,15.37
2017-09-30T17:42:39.075Z,17.20
2017-09-30T17:45:08.126Z,17.13
2017-09-30T17:47:37.225Z,15.03
2017-09-30T17:50:06.276Z,14.77
2017-09-30T17:52:35.318Z,16.20
2017-09-30T17:55:04.425Z,14.03
2017-09-30T17:57:33.470Z,14.67
2017-09-30T18:00:02.684Z,17.57
2017-09-30T18:02:31.730Z,16.60
2017-09-30T18:05:00.775Z,15.53
2017-09-30T18:07:29.871Z,14.30
2017-09-30T18:09:59.892Z,12.93
2017-09-30T18:12:28.933Z,15.47
2017-09-30T18:14:57.990Z,11.30
2017-09-30T18:17:27.093Z,13.53
2017-09-30T18:19:56.150Z,12.63
2017-09-30T18:22:26.215Z,13.30
2017-09-30T18:24:55.274Z,12.70
2017-09-30T18:27:24.318Z,14.03
2017-09-30T18:29:53.374Z,10.83
2017-09-30T18:32:22.414Z,12.60
2017-09-30T18:34:53.578Z,13.30
2017-09-30T18:37:22.654Z,10.93
2017-09-30T18:39:52.671Z,11.87
2017-09-30T18:42:21.725Z,11.90
2017-09-30T18:44:50.774Z,14.13
2017-09-30T18:47:19.828Z,14.23
2017-09-30T18:49:48.875Z,12.50
2017-09-30T18:52:17.958Z,11.37
2017-09-30T18:54:47.020Z,12.80
2017-09-30T18:57:16.086Z,12.13
2017-09-30T18:59:45.147Z,12.50
2017-09-30T19:02:14.230Z,11.80
2017-09-30T19:04:43.282Z,12.50
2017-09-30T19:07:12.351Z,12.80
2017-09-30T19:09:41.402Z,12.63
2017-09-30T19:12:10.557Z,12.70
2017-09-30T19:14:39.614Z,14.90
2017-09-30T19:17:08.669Z,14.07
2017-09-30T19:19:37.733Z,15.10
2017-09-30T19:22:06.776Z,14.00
2017-09-30T19:24:35.846Z,13.10
2017-09-30T19:27:04.903Z,12.33
2017-09-30T19:29:33.962Z,16.40
2017-09-30T19:32:03.033Z,15.67
2017-09-30T19:34:32.102Z,15.33
2017-09-30T19:37:01.175Z,16.73
2017-09-30T19:39:30.222Z,15.30
2017-09-30T19:42:00.272Z,17.00
2017-09-30T19:44:29.327Z,15.30
2017-09-30T19:46:58.510Z,17.17
2017-09-30T19:49:27.584Z,16.60
2017-09-30T19:51:57.690Z,16.63
2017-09-30T19:54:26.756Z,17.03
2017-09-30T19:56:55.829Z,16.50
2017-09-30T19:59:24.878Z,15.93
2017-09-30T20:01:53.966Z,15.40
2017-09-30T20:04:23.006Z,16.13
2017-09-30T20:06:52.110Z,14.93
2017-09-30T20:09:21.158Z,15.00
2017-09-30T20:11:50.207Z,14.80
2017-09-30T20:14:19.274Z,15.27
2017-09-30T20:16:48.379Z,15.20
2017-09-30T20:19:17.435Z,15.53
2017-09-30T20:21:46.475Z,15.60
2017-09-30T20:24:15.549Z,17.63
2017-09-30T20:26:44.643Z,18.20
2017-09-30T20:29:13.721Z,20.20
2017-09-30T20:31:42.829Z,20.43
2017-09-30T20:34:11.901Z,15.87
2017-09-30T20:36:40.950Z,10.83
2017-09-30T20:39:09.994Z,8.23
2017-09-30T20:41:39.057Z,6.90
2017-09-30T20:44:08.112Z,8.50
2017-09-30T20:46:37.153Z,6.90
2017-09-30T20:49:06.250Z,6.13
2017-09-30T20:51:35.299Z,6.70
2017-09-30T20:54:04.354Z,6.77
2017-09-30T20:56:33.409Z,19.67
2017-09-30T20:59:02.501Z,8.33
2017-09-30T21:01:31.544Z,5.73
2017-09-30T21:04:02.595Z,11.23
2017-09-30T21:06:31.624Z,6.20
2017-09-30T21:09:00.716Z,7.03
2017-09-30T21:11:29.755Z,6.53
2017-09-30T21:13:58.803Z,6.87
2017-09-30T21:16:27.966Z,6.23
2017-09-30T21:18:59.131Z,7.53
2017-09-30T21:21:28.151Z,6.20
2017-09-30T21:23:57.191Z,6.90
2017-09-30T21:26:26.239Z,6.23
2017-09-30T21:28:55.289Z,5.90
2017-09-30T21:31:24.393Z,6.43
2017-09-30T21:33:54.024Z,6.67
2017-09-30T21:36:23.067Z,7.13
2017-09-30T21:38:52.128Z,7.77
2017-09-30T21:41:21.170Z,7.40
2017-09-30T21:43:50.408Z,7.43
2017-09-30T21:46:19.463Z,7.07
2017-09-30T21:48:48.497Z,8.80
2017-09-30T21:51:17.547Z,6.70
2017-09-30T21:53:46.606Z,6.10
2017-09-30T21:56:15.645Z,6.40
2017-09-30T21:58:44.743Z,6.00
2017-09-30T22:01:13.790Z,6.17
2017-09-30T22:03:42.854Z,5.30
2017-09-30T22:06:11.982Z,5.70
2017-09-30T22:08:41.033Z,5.63
2017-09-30T22:11:10.067Z,5.53
2017-09-30T22:13:39.123Z,5.47
2017-09-30T22:16:08.165Z,5.80
2017-09-30T22:18:37.238Z,5.60
2017-09-30T22:21:06.306Z,7.70
2017-09-30T22:23:35.325Z,6.10
2017-09-30T22:26:04.364Z,6.40
2017-09-30T22:28:33.431Z,5.90
2017-09-30T22:31:02.504Z,6.13
2017-09-30T22:33:31.580Z,7.87
2017-09-30T22:36:00.618Z,7.60
2017-09-30T22:38:29.662Z,8.50
2017-09-30T22:40:58.740Z,7.67
2017-09-30T22:43:27.775Z,7.10
2017-09-30T22:45:56.827Z,7.90
2017-09-30T22:48:25.918Z,8.23
2017-09-30T22:50:55.010Z,6.73
2017-09-30T22:53:24.075Z,7.27
2017-09-30T22:55:53.115Z,7.20
2017-09-30T22:58:22.418Z,6.60
2017-09-30T23:00:51.452Z,8.37
2017-09-30T23:03:20.492Z,6.43
2017-09-30T23:05:49.529Z,6.37
2017-09-30T23:08:18.582Z,5.13
2017-09-30T23:10:47.642Z,5.60
2017-09-30T23:13:16.683Z,5.10
2017-09-30T23:15:45.722Z,4.10
2017-09-30T23:18:14.866Z,4.70
2017-09-30T23:20:43.911Z,3.60
2017-09-30T23:23:15.377Z,3.80
2017-09-30T23:25:44.406Z,3.83
2017-09-30T23:28:13.459Z,4.03
2017-09-30T23:30:42.507Z,3.20
2017-09-30T23:33:11.551Z,3.73
2017-09-30T23:35:40.594Z,4.60
2017-09-30T23:38:09.659Z,3.80
2017-09-30T23:40:38.708Z,4.60
2017-09-30T23:43:07.883Z,5.37
2017-09-30T23:45:36.911Z,4.43
2017-09-30T23:48:05.950Z,4.60
2017-09-30T23:50:35.019Z,4.60
2017-09-30T23:53:04.063Z,4.83
2017-09-30T23:55:33.106Z,4.97
2017-09-30T23:58:02.150Z,5.10
